PWSweather.com
Personal Weather Stations
Station Observations
SPARKSRC
St. Petersburg, FL 33716

St. Petersburg, FL 33716

Lat: 27.876101, Lon: -82.657194

Elevation: 13

Station Type: Zephyr PWS-1000TD

Latest ConditionsUpdated 5:15:02 AM EST Thursday, Jan 29, 2015
Currently Today's Max Today's Min Today's Average
Temperature 48.2°F9.0°C 50.0°F10.0°C 48.2°F9.0°C 48.9°F9.4°C
Dew Point 43.3°F6.3°C 46.0°F7.8°C 43.0°F6.1°C 44.6°F7.0°C
Winds 8.3 mph NE13.4 kmh NE 9.8 mph NE15.8 kmh NE - 6.6 mph 10.6 kmh
Wind Gusts 12.1 mph19.5 kmh 16.8 mph27.0 kmh - -
Humidity 83% 89% 81% 85%
Pressure 30.21 in1023.0 mb 30.24 in1024.0 mb 30.21 in1023.0 mb -
Hour Temp Dew Point Humidity Winds Wind Gusts Pressure Precip Precip Rate Daily Precip Total
05:15 AM 48.2°F9.0°C 43.3°F6.3°C 83% 8.3 mph NE13.4 kmh NE 12.1 mph19.5 kmh 30.21 in1023.0 mb 0.00 in0.0 mm 0.00 in/hr0.0 mm/hr 0.00 in0.0 mm
05:10 AM 48.4°F9.1°C 43.5°F6.4°C 83% 4.5 mph NE7.2 kmh NE 10.7 mph17.2 kmh 30.22 in1023.4 mb 0.00 in0.0 mm 0.00 in/hr0.0 mm/hr 0.00 in0.0 mm
05:05 AM 48.4°F9.1°C 43.5°F6.4°C 83% 7.6 mph NE12.2 kmh NE 10.7 mph17.2 kmh 30.21 in1023.0 mb 0.00 in0.0 mm 0.00 in/hr0.0 mm/hr 0.00 in0.0 mm
05:00 AM 48.4°F9.1°C 43.5°F6.4°C 83% 6.0 mph NE9.7 kmh NE 10.7 mph17.2 kmh 30.22 in1023.4 mb 0.00 in0.0 mm 0.00 in/hr0.0 mm/hr 0.00 in0.0 mm
04:55 AM 48.4°F9.1°C 43.5°F6.4°C 83% 7.6 mph NE12.2 kmh NE 10.7 mph17.2 kmh 30.22 in1023.4 mb 0.00 in0.0 mm 0.00 in/hr0.0 mm/hr 0.00 in0.0 mm
04:50 AM 48.6°F9.2°C 43.6°F6.4°C 83% 6.0 mph NE9.7 kmh NE 10.7 mph17.2 kmh 30.21 in1023.0 mb 0.00 in0.0 mm 0.00 in/hr0.0 mm/hr 0.00 in0.0 mm
04:45 AM 48.6°F9.2°C 43.3°F6.3°C 82% 6.9 mph NE11.1 kmh NE 9.8 mph15.8 kmh 30.22 in1023.4 mb 0.00 in0.0 mm 0.00 in/hr0.0 mm/hr 0.00 in0.0 mm
04:40 AM 48.6°F9.2°C 43.0°F6.1°C 81% 5.4 mph NE8.7 kmh NE 11.4 mph18.3 kmh 30.22 in1023.4 mb 0.00 in0.0 mm 0.00 in/hr0.0 mm/hr 0.00 in0.0 mm
04:35 AM 48.6°F9.2°C 43.0°F6.1°C 81% 5.4 mph NE8.7 kmh NE 13.6 mph21.9 kmh 30.21 in1023.0 mb 0.00 in0.0 mm 0.00 in/hr0.0 mm/hr 0.00 in0.0 mm
04:30 AM 48.6°F9.2°C 43.3°F6.3°C 82% 9.8 mph NE15.8 kmh NE 13.6 mph21.9 kmh 30.22 in1023.4 mb 0.00 in0.0 mm 0.00 in/hr0.0 mm/hr 0.00 in0.0 mm
04:25 AM 48.4°F9.1°C 43.1°F6.2°C 82% 6.9 mph NE11.1 kmh NE 11.4 mph18.3 kmh 30.22 in1023.4 mb 0.00 in0.0 mm 0.00 in/hr0.0 mm/hr 0.00 in0.0 mm
04:20 AM 48.6°F9.2°C 43.0°F6.1°C 81% 4.5 mph NE7.2 kmh NE 11.4 mph18.3 kmh 30.22 in1023.4 mb 0.00 in0.0 mm 0.00 in/hr0.0 mm/hr 0.00 in0.0 mm
04:15 AM 48.7°F9.3°C 43.2°F6.2°C 81% 4.5 mph NE7.2 kmh NE 12.1 mph19.5 kmh 30.22 in1023.4 mb 0.00 in0.0 mm 0.00 in/hr0.0 mm/hr 0.00 in0.0 mm
04:10 AM 48.7°F9.3°C 43.2°F6.2°C 81% 5.4 mph NE8.7 kmh NE 13.6 mph21.9 kmh 30.22 in1023.4 mb 0.00 in0.0 mm 0.00 in/hr0.0 mm/hr 0.00 in0.0 mm
04:05 AM 48.7°F9.3°C 43.2°F6.2°C 81% 6.9 mph NE11.1 kmh NE 15.2 mph24.5 kmh 30.22 in1023.4 mb 0.00 in0.0 mm 0.00 in/hr0.0 mm/hr 0.00 in0.0 mm
04:00 AM 48.6°F9.2°C 43.3°F6.3°C 82% 7.6 mph NE12.2 kmh NE 15.2 mph24.5 kmh 30.22 in1023.4 mb 0.00 in0.0 mm 0.00 in/hr0.0 mm/hr 0.00 in0.0 mm
03:50 AM 48.7°F9.3°C 43.5°F6.4°C 82% 9.8 mph NE15.8 kmh NE 14.5 mph23.3 kmh 30.22 in1023.4 mb 0.00 in0.0 mm 0.00 in/hr0.0 mm/hr 0.00 in0.0 mm
03:45 AM 48.6°F9.2°C 43.3°F6.3°C 82% 7.6 mph NE12.2 kmh NE 14.5 mph23.3 kmh 30.22 in1023.4 mb 0.00 in0.0 mm 0.00 in/hr0.0 mm/hr 0.00 in0.0 mm
03:40 AM 48.6°F9.2°C 43.6°F6.4°C 83% 6.0 mph NE9.7 kmh NE 13.0 mph20.9 kmh 30.22 in1023.4 mb 0.00 in0.0 mm 0.00 in/hr0.0 mm/hr 0.00 in0.0 mm
03:35 AM 48.4°F9.1°C 43.8°F6.6°C 84% 5.4 mph NE8.7 kmh NE 9.8 mph15.8 kmh 30.22 in1023.4 mb 0.00 in0.0 mm 0.00 in/hr0.0 mm/hr 0.00 in0.0 mm
03:30 AM 48.4°F9.1°C 43.8°F6.6°C 84% 7.6 mph NE12.2 kmh NE 11.4 mph18.3 kmh 30.22 in1023.4 mb 0.00 in0.0 mm 0.00 in/hr0.0 mm/hr 0.00 in0.0 mm
03:25 AM 48.6°F9.2°C 44.0°F6.7°C 84% 4.5 mph NE7.2 kmh NE 11.4 mph18.3 kmh 30.23 in1023.7 mb 0.00 in0.0 mm 0.00 in/hr0.0 mm/hr 0.00 in0.0 mm
03:20 AM 48.7°F9.3°C 44.4°F6.9°C 85% 6.0 mph NE9.7 kmh NE 15.2 mph24.5 kmh 30.23 in1023.7 mb 0.00 in0.0 mm 0.00 in/hr0.0 mm/hr 0.00 in0.0 mm
03:15 AM 48.7°F9.3°C 44.4°F6.9°C 85% 6.9 mph NE11.1 kmh NE 15.2 mph24.5 kmh 30.23 in1023.7 mb 0.00 in0.0 mm 0.00 in/hr0.0 mm/hr 0.00 in0.0 mm
03:10 AM 48.6°F9.2°C 44.3°F6.8°C 85% 9.2 mph NE14.8 kmh NE 13.0 mph20.9 kmh 30.23 in1023.7 mb 0.00 in0.0 mm 0.00 in/hr0.0 mm/hr 0.00 in0.0 mm
03:05 AM 48.6°F9.2°C 44.6°F7.0°C 86% 6.0 mph NE9.7 kmh NE 12.1 mph19.5 kmh 30.23 in1023.7 mb 0.00 in0.0 mm 0.00 in/hr0.0 mm/hr 0.00 in0.0 mm
03:00 AM 48.6°F9.2°C 44.6°F7.0°C 86% 3.1 mph NE5.0 kmh NE 9.8 mph15.8 kmh 30.23 in1023.7 mb 0.00 in0.0 mm 0.00 in/hr0.0 mm/hr 0.00 in0.0 mm
02:55 AM 48.7°F9.3°C 44.4°F6.9°C 85% 4.5 mph NE7.2 kmh NE 13.6 mph21.9 kmh 30.23 in1023.7 mb 0.00 in0.0 mm 0.00 in/hr0.0 mm/hr 0.00 in0.0 mm
02:50 AM 48.7°F9.3°C 44.4°F6.9°C 85% 9.2 mph NE14.8 kmh NE 13.6 mph21.9 kmh 30.22 in1023.4 mb 0.00 in0.0 mm 0.00 in/hr0.0 mm/hr 0.00 in0.0 mm
02:45 AM 48.7°F9.3°C 44.4°F6.9°C 85% 8.3 mph NE13.4 kmh NE 12.1 mph19.5 kmh 30.22 in1023.4 mb 0.00 in0.0 mm 0.00 in/hr0.0 mm/hr 0.00 in0.0 mm
02:40 AM 48.7°F9.3°C 44.7°F7.1°C 86% 6.9 mph NE11.1 kmh NE 13.6 mph21.9 kmh 30.22 in1023.4 mb 0.00 in0.0 mm 0.00 in/hr0.0 mm/hr 0.00 in0.0 mm
02:35 AM 48.9°F9.4°C 44.9°F7.2°C 86% 6.0 mph NE9.7 kmh NE 13.6 mph21.9 kmh 30.22 in1023.4 mb 0.00 in0.0 mm 0.00 in/hr0.0 mm/hr 0.00 in0.0 mm
02:30 AM 48.9°F9.4°C 45.2°F7.3°C 87% 6.0 mph NE9.7 kmh NE 13.6 mph21.9 kmh 30.22 in1023.4 mb 0.00 in0.0 mm 0.00 in/hr0.0 mm/hr 0.00 in0.0 mm
02:25 AM 48.9°F9.4°C 45.2°F7.3°C 87% 6.0 mph NE9.7 kmh NE 14.5 mph23.3 kmh 30.22 in1023.4 mb 0.00 in0.0 mm 0.00 in/hr0.0 mm/hr 0.00 in0.0 mm
02:20 AM 48.7°F9.3°C 45.6°F7.6°C 89% 9.8 mph NE15.8 kmh NE 14.5 mph23.3 kmh 30.22 in1023.4 mb 0.00 in0.0 mm 0.00 in/hr0.0 mm/hr 0.00 in0.0 mm
02:15 AM 48.7°F9.3°C 45.6°F7.6°C 89% 7.6 mph NE12.2 kmh NE 11.4 mph18.3 kmh 30.22 in1023.4 mb 0.00 in0.0 mm 0.00 in/hr0.0 mm/hr 0.00 in0.0 mm
02:10 AM 48.7°F9.3°C 45.6°F7.6°C 89% 3.8 mph NE6.1 kmh NE 11.4 mph18.3 kmh 30.22 in1023.4 mb 0.00 in0.0 mm 0.00 in/hr0.0 mm/hr 0.00 in0.0 mm
02:05 AM 48.7°F9.3°C 45.6°F7.6°C 89% 5.4 mph NE8.7 kmh NE 12.1 mph19.5 kmh 30.22 in1023.4 mb 0.00 in0.0 mm 0.00 in/hr0.0 mm/hr 0.00 in0.0 mm
02:00 AM 48.7°F9.3°C 45.6°F7.6°C 89% 6.0 mph NE9.7 kmh NE 13.6 mph21.9 kmh 30.22 in1023.4 mb 0.00 in0.0 mm 0.00 in/hr0.0 mm/hr 0.00 in0.0 mm
01:55 AM 48.9°F9.4°C 45.8°F7.7°C 89% 7.6 mph NE12.2 kmh NE 13.6 mph21.9 kmh 30.23 in1023.7 mb 0.00 in0.0 mm 0.00 in/hr0.0 mm/hr 0.00 in0.0 mm
01:50 AM 49.1°F9.5°C 46.0°F7.8°C 89% 6.0 mph NE9.7 kmh NE 13.0 mph20.9 kmh 30.23 in1023.7 mb 0.00 in0.0 mm 0.00 in/hr0.0 mm/hr 0.00 in0.0 mm
01:45 AM 49.1°F9.5°C 46.0°F7.8°C 89% 6.9 mph NE11.1 kmh NE 15.9 mph25.6 kmh 30.23 in1023.7 mb 0.00 in0.0 mm 0.00 in/hr0.0 mm/hr 0.00 in0.0 mm
01:40 AM 49.1°F9.5°C 46.0°F7.8°C 89% 8.3 mph NE13.4 kmh NE 15.9 mph25.6 kmh 30.23 in1023.7 mb 0.00 in0.0 mm 0.00 in/hr0.0 mm/hr 0.00 in0.0 mm
01:35 AM 48.9°F9.4°C 45.5°F7.5°C 88% 6.9 mph NE11.1 kmh NE 12.1 mph19.5 kmh 30.23 in1023.7 mb 0.00 in0.0 mm 0.00 in/hr0.0 mm/hr 0.00 in0.0 mm
01:30 AM 48.9°F9.4°C 45.5°F7.5°C 88% 6.0 mph NE9.7 kmh NE 12.1 mph19.5 kmh 30.23 in1023.7 mb 0.00 in0.0 mm 0.00 in/hr0.0 mm/hr 0.00 in0.0 mm
01:25 AM 49.1°F9.5°C 45.7°F7.6°C 88% 3.8 mph NE6.1 kmh NE 10.7 mph17.2 kmh 30.23 in1023.7 mb 0.00 in0.0 mm 0.00 in/hr0.0 mm/hr 0.00 in0.0 mm
01:20 AM 49.1°F9.5°C 45.7°F7.6°C 88% 6.0 mph NE9.7 kmh NE 10.7 mph17.2 kmh 30.22 in1023.4 mb 0.00 in0.0 mm 0.00 in/hr0.0 mm/hr 0.00 in0.0 mm
01:15 AM 49.1°F9.5°C 45.4°F7.4°C 87% 6.0 mph NE9.7 kmh NE 13.0 mph20.9 kmh 30.23 in1023.7 mb 0.00 in0.0 mm 0.00 in/hr0.0 mm/hr 0.00 in0.0 mm
01:10 AM 49.1°F9.5°C 45.4°F7.4°C 87% 5.4 mph NE8.7 kmh NE 13.0 mph20.9 kmh 30.23 in1023.7 mb 0.00 in0.0 mm 0.00 in/hr0.0 mm/hr 0.00 in0.0 mm
01:05 AM 49.3°F9.6°C 45.6°F7.6°C 87% 6.0 mph NE9.7 kmh NE 13.0 mph20.9 kmh 30.24 in1024.0 mb 0.00 in0.0 mm 0.00 in/hr0.0 mm/hr 0.00 in0.0 mm
01:00 AM 49.3°F9.6°C 45.6°F7.6°C 87% 7.6 mph NE12.2 kmh NE 13.0 mph20.9 kmh 30.23 in1023.7 mb 0.00 in0.0 mm 0.00 in/hr0.0 mm/hr 0.00 in0.0 mm
12:55 AM 49.5°F9.7°C 45.5°F7.5°C 86% 4.5 mph NE7.2 kmh NE 13.6 mph21.9 kmh 30.23 in1023.7 mb 0.00 in0.0 mm 0.00 in/hr0.0 mm/hr 0.00 in0.0 mm
12:50 AM 49.5°F9.7°C 45.5°F7.5°C 86% 6.0 mph NE9.7 kmh NE 13.6 mph21.9 kmh 30.23 in1023.7 mb 0.00 in0.0 mm 0.00 in/hr0.0 mm/hr 0.00 in0.0 mm
12:45 AM 49.6°F9.8°C 45.3°F7.4°C 85% 8.3 mph NE13.4 kmh NE 13.6 mph21.9 kmh 30.22 in1023.4 mb 0.00 in0.0 mm 0.00 in/hr0.0 mm/hr 0.00 in0.0 mm
12:40 AM 49.6°F9.8°C 45.3°F7.4°C 85% 6.9 mph NE11.1 kmh NE 12.1 mph19.5 kmh 30.22 in1023.4 mb 0.00 in0.0 mm 0.00 in/hr0.0 mm/hr 0.00 in0.0 mm
12:35 AM 49.8°F9.9°C 45.2°F7.3°C 84% 5.4 mph NE8.7 kmh NE 13.6 mph21.9 kmh 30.22 in1023.4 mb 0.00 in0.0 mm 0.00 in/hr0.0 mm/hr 0.00 in0.0 mm
12:30 AM 49.8°F9.9°C 44.9°F7.2°C 83% 9.2 mph NE14.8 kmh NE 13.6 mph21.9 kmh 30.22 in1023.4 mb 0.00 in0.0 mm 0.00 in/hr0.0 mm/hr 0.00 in0.0 mm
12:25 AM 50.0°F10.0°C 45.0°F7.2°C 83% 7.6 mph NE12.2 kmh NE 16.8 mph27.0 kmh 30.22 in1023.4 mb 0.00 in0.0 mm 0.00 in/hr0.0 mm/hr 0.00 in0.0 mm
12:20 AM 50.0°F10.0°C 45.0°F7.2°C 83% 6.0 mph NE9.7 kmh NE 16.8 mph27.0 kmh 30.22 in1023.4 mb 0.00 in0.0 mm 0.00 in/hr0.0 mm/hr 0.00 in0.0 mm
12:15 AM 50.0°F10.0°C 45.0°F7.2°C 83% 9.2 mph NE14.8 kmh NE 15.2 mph24.5 kmh 30.22 in1023.4 mb 0.00 in0.0 mm 0.00 in/hr0.0 mm/hr 0.00 in0.0 mm
12:10 AM 50.0°F10.0°C 45.0°F7.2°C 83% 7.6 mph NE12.2 kmh NE 14.5 mph23.3 kmh 30.23 in1023.7 mb 0.00 in0.0 mm 0.00 in/hr0.0 mm/hr 0.00 in0.0 mm
12:05 AM 50.0°F10.0°C 45.0°F7.2°C 83% 6.0 mph NE9.7 kmh NE 13.0 mph20.9 kmh 30.23 in1023.7 mb 0.00 in0.0 mm 0.00 in/hr0.0 mm/hr 0.00 in0.0 mm
12:00 AM 50.0°F10.0°C 45.4°F7.4°C 84% 8.3 mph NE13.4 kmh NE 15.2 mph24.5 kmh 30.23 in1023.7 mb 0.00 in0.0 mm 0.00 in/hr0.0 mm/hr 0.00 in0.0 mm